Time;durP1;ratioP1;P1;durP2;ratioP2;P2;SDS_P1;SDS_P2;PMS_P1;PMS_P2;Temp;Humidity;BMP_temperature;BMP_pressure;BME280_temperature;BME280_humidity;BME280_pressure;Samples;Min_cycle;Max_cycle;Signal;HPM_P1;HPM_P2
2023/09/11 00:02:11;;;;;;;7.55;6.85;;;17.30;99.90;;;;;;4853124;29;20169;-94
2023/09/11 00:04:37;;;;;;;9.65;7.38;;;17.30;99.90;;;;;;4853550;29;20257;-96
2023/09/11 00:07:16;;;;;;;9.82;7.13;;;17.30;99.90;;;;;;4854022;29;20209;-93
2023/09/11 00:09:43;;;;;;;8.25;6.60;;;17.30;99.90;;;;;;4854421;29;20201;-94
2023/09/11 00:12:13;;;;;;;9.75;7.15;;;17.30;99.90;;;;;;4854051;29;20185;-94
2023/09/11 00:14:39;;;;;;;8.60;6.88;;;17.20;99.90;;;;;;4853564;29;20284;-94
2023/09/11 00:17:05;;;;;;;7.00;6.30;;;17.20;99.90;;;;;;4853877;29;20624;-95
2023/09/11 00:19:31;;;;;;;9.57;7.05;;;17.20;99.90;;;;;;4856727;29;20168;-95
2023/09/11 00:21:58;;;;;;;8.65;7.68;;;17.10;99.90;;;;;;4857979;29;20185;-94
2023/09/11 00:24:24;;;;;;;12.43;7.78;;;17.10;99.90;;;;;;4857551;29;20173;-94
2023/09/11 00:26:50;;;;;;;8.25;7.45;;;17.10;99.90;;;;;;4857767;29;20205;-94
2023/09/11 00:29:16;;;;;;;9.07;7.03;;;17.00;99.90;;;;;;4842255;29;20178;-93
2023/09/11 00:31:42;;;;;;;8.82;7.10;;;17.00;99.90;;;;;;4857245;29;20174;-94
2023/09/11 00:34:08;;;;;;;7.85;7.07;;;16.90;99.90;;;;;;4842354;29;20212;-94
2023/09/11 00:36:35;;;;;;;7.40;6.70;;;16.90;99.90;;;;;;4857659;29;20233;-94
2023/09/11 00:39:01;;;;;;;9.98;7.15;;;16.80;99.90;;;;;;4841636;29;20169;-95
2023/09/11 00:41:27;;;;;;;12.10;7.65;;;16.80;99.90;;;;;;4857337;29;20169;-94
2023/09/11 00:43:53;;;;;;;7.70;6.95;;;16.90;99.90;;;;;;4857554;29;20173;-94
2023/09/11 00:46:19;;;;;;;8.43;7.03;;;16.90;99.90;;;;;;4857585;29;20189;-94
2023/09/11 00:48:45;;;;;;;7.40;6.70;;;16.90;99.90;;;;;;4856967;29;20181;-94
2023/09/11 00:51:11;;;;;;;10.63;6.72;;;16.90;99.90;;;;;;4856680;29;20650;-94
2023/09/11 00:53:41;;;;;;;7.70;6.22;;;16.80;99.90;;;;;;4857711;29;20209;-95
2023/09/11 00:56:07;;;;;;;9.25;5.97;;;16.80;99.90;;;;;;4858026;29;20166;-94
2023/09/11 00:58:33;;;;;;;7.20;6.45;;;16.70;99.90;;;;;;4856681;29;20208;-94
2023/09/11 01:01:00;;;;;;;8.02;6.32;;;16.60;99.90;;;;;;4856360;29;20225;-94
2023/09/11 01:03:29;;;;;;;9.00;6.93;;;16.50;99.90;;;;;;4856826;29;20185;-94
2023/09/11 01:05:56;;;;;;;7.97;6.75;;;16.60;99.90;;;;;;4856529;29;20189;-94
2023/09/11 01:08:24;;;;;;;7.78;6.60;;;16.50;99.90;;;;;;4857885;29;20201;-94
2023/09/11 01:10:50;;;;;;;8.35;6.65;;;16.50;99.90;;;;;;4841515;29;20223;-94
2023/09/11 01:13:17;;;;;;;6.72;5.93;;;16.50;99.90;;;;;;4856276;29;20248;-94
2023/09/11 01:16:02;;;;;;;6.85;5.90;;;16.50;99.90;;;;;;4856149;29;20181;-95
2023/09/11 01:18:47;;;;;;;8.02;6.70;;;16.60;99.90;;;;;;4841507;29;20208;-95
2023/09/11 01:21:40;;;;;;;7.60;6.13;;;16.50;99.90;;;;;;4857041;29;20211;-95
2023/09/11 01:24:26;;;;;;;9.57;6.20;;;16.50;99.90;;;;;;4836433;29;20209;-94
2023/09/11 01:26:55;;;;;;;10.75;6.60;;;16.40;99.90;;;;;;4840669;29;20205;-93
2023/09/11 01:29:34;;;;;;;8.02;5.90;;;16.40;99.90;;;;;;4839849;29;20189;-94
2023/09/11 01:32:05;;;;;;;6.53;5.88;;;16.30;99.90;;;;;;4856217;29;20710;-95
2023/09/11 01:34:35;;;;;;;6.38;5.30;;;16.20;99.90;;;;;;4840341;29;20208;-95
2023/09/11 01:37:01;;;;;;;5.97;5.30;;;16.20;99.90;;;;;;4855835;29;20197;-94
2023/09/11 01:39:28;;;;;;;5.90;5.28;;;16.10;99.90;;;;;;4857082;29;20209;-93
2023/09/11 01:42:00;;;;;;;6.40;5.22;;;16.10;99.90;;;;;;4856344;29;20177;-93
2023/09/11 01:44:32;;;;;;;8.30;5.43;;;16.20;99.90;;;;;;4841241;29;20185;-94
2023/09/11 01:47:00;;;;;;;6.13;5.40;;;16.20;99.90;;;;;;4856240;29;20201;-94
2023/09/11 01:49:28;;;;;;;8.52;5.65;;;16.10;99.90;;;;;;4856226;29;20544;-93
2023/09/11 01:51:54;;;;;;;5.03;4.63;;;16.20;99.90;;;;;;4856244;29;20178;-94
2023/09/11 01:54:23;;;;;;;5.60;5.00;;;16.10;99.90;;;;;;4840382;29;20209;-94
2023/09/11 01:56:49;;;;;;;5.40;4.90;;;16.20;99.90;;;;;;4856152;29;20205;-94
2023/09/11 01:59:15;;;;;;;5.57;4.70;;;16.20;99.90;;;;;;4856147;29;20650;-93
2023/09/11 02:01:42;;;;;;;6.88;5.20;;;16.10;99.90;;;;;;4859086;29;20593;-95
2023/09/11 02:04:09;;;;;;;6.45;5.22;;;16.20;99.90;;;;;;4859139;29;20207;-94
2023/09/11 02:06:34;;;;;;;6.32;5.25;;;16.20;99.90;;;;;;5195662;23;20198;-90
2023/09/11 02:09:00;;;;;;;7.38;5.60;;;16.20;99.90;;;;;;4845701;29;20274;-91
2023/09/11 02:11:26;;;;;;;7.22;5.38;;;16.20;99.90;;;;;;4829917;29;20185;-90
2023/09/11 02:13:52;;;;;;;7.03;6.22;;;16.10;99.90;;;;;;4830140;29;20225;-90
2023/09/11 02:16:18;;;;;;;9.88;7.68;;;16.00;99.90;;;;;;4829895;29;20181;-90
2023/09/11 02:18:44;;;;;;;8.60;7.80;;;16.00;99.90;;;;;;4829850;29;20185;-91
2023/09/11 02:21:10;;;;;;;7.40;6.70;;;16.00;99.90;;;;;;4829895;29;20189;-91
2023/09/11 02:23:35;;;;;;;8.35;7.00;;;16.00;99.90;;;;;;4829308;29;20227;-92
2023/09/11 02:26:01;;;;;;;10.90;7.50;;;16.00;99.90;;;;;;4846007;29;20205;-91
2023/09/11 02:28:40;;;;;;;8.48;7.30;;;16.00;99.90;;;;;;4829662;29;20268;-90
2023/09/11 02:31:07;;;;;;;11.60;7.32;;;16.00;99.90;;;;;;4829652;29;20617;-90
2023/09/11 02:33:32;;;;;;;7.13;6.43;;;16.00;99.90;;;;;;4829535;29;20252;-92
2023/09/11 02:35:59;;;;;;;7.70;6.13;;;16.00;99.90;;;;;;4845884;29;20181;-92
2023/09/11 02:38:25;;;;;;;9.25;6.40;;;15.90;99.90;;;;;;4814758;29;20202;-91
2023/09/11 02:40:52;;;;;;;5.78;5.25;;;15.80;99.90;;;;;;4810692;29;20175;-92
2023/09/11 02:43:18;;;;;;;6.95;5.45;;;15.70;99.90;;;;;;4811269;29;20281;-92
2023/09/11 02:45:44;;;;;;;5.30;4.80;;;15.60;99.90;;;;;;4811455;29;20640;-92
2023/09/11 02:48:11;;;;;;;7.05;5.47;;;15.70;99.90;;;;;;4810780;29;20189;-91
2023/09/11 02:50:38;;;;;;;6.50;5.20;;;15.70;99.90;;;;;;4810962;29;20186;-91
2023/09/11 02:53:08;;;;;;;6.90;5.38;;;15.70;99.90;;;;;;4810877;29;20618;-92
2023/09/11 02:55:37;;;;;;;10.60;5.50;;;15.70;99.90;;;;;;4811051;29;20239;-92
2023/09/11 02:58:04;;;;;;;5.43;4.63;;;15.60;99.90;;;;;;4810884;29;20571;-91
2023/09/11 03:00:48;;;;;;;6.55;5.30;;;15.60;99.90;;;;;;4810945;29;20629;-91
2023/09/11 03:03:14;;;;;;;7.03;5.00;;;15.60;99.90;;;;;;4811033;29;20178;-91
2023/09/11 03:05:40;;;;;;;6.70;5.30;;;15.60;99.90;;;;;;4810722;29;20502;-92
2023/09/11 03:08:06;;;;;;;9.43;6.20;;;15.70;99.90;;;;;;4810273;29;20241;-92
2023/09/11 03:10:34;;;;;;;7.55;5.80;;;15.60;99.90;;;;;;4810891;29;20592;-92
2023/09/11 03:12:59;;;;;;;7.60;5.72;;;15.60;99.90;;;;;;4810925;29;20261;-91
2023/09/11 03:15:29;;;;;;;11.35;6.13;;;15.60;99.90;;;;;;4810813;29;20333;-91
2023/09/11 03:17:55;;;;;;;6.80;5.80;;;15.60;99.90;;;;;;4810617;29;20245;-91
2023/09/11 03:20:22;;;;;;;7.63;5.55;;;15.50;99.90;;;;;;4810726;29;20224;-91
2023/09/11 03:22:47;;;;;;;7.75;5.28;;;15.60;99.90;;;;;;4810573;29;20178;-91
2023/09/11 03:25:13;;;;;;;6.40;5.80;;;15.60;99.90;;;;;;4826821;29;20614;-91
2023/09/11 03:27:39;;;;;;;6.95;6.20;;;15.60;99.90;;;;;;4810344;29;20189;-91
2023/09/11 03:30:06;;;;;;;7.00;5.82;;;15.60;99.90;;;;;;4810368;29;20193;-92
2023/09/11 03:32:32;;;;;;;7.15;6.18;;;15.50;99.90;;;;;;4810361;29;20193;-92
2023/09/11 03:34:57;;;;;;;7.85;5.90;;;15.50;99.90;;;;;;4810415;29;20225;-92
2023/09/11 03:37:24;;;;;;;9.25;6.25;;;15.40;99.90;;;;;;4822862;29;20223;-92
2023/09/11 03:39:50;;;;;;;7.75;5.57;;;15.40;99.90;;;;;;4846589;29;20188;-92
2023/09/11 03:42:16;;;;;;;7.97;5.85;;;15.30;99.90;;;;;;4846657;29;20628;-92
2023/09/11 03:44:42;;;;;;;8.20;7.15;;;15.30;99.90;;;;;;4847117;29;20298;-91
2023/09/11 03:47:07;;;;;;;8.15;7.35;;;15.30;99.90;;;;;;4846549;29;20221;-91
2023/09/11 03:49:40;;;;;;;9.77;7.75;;;15.30;99.90;;;;;;4863248;29;20219;-89
2023/09/11 03:52:06;;;;;;;10.32;8.40;;;15.30;99.90;;;;;;4846322;29;20198;-91
2023/09/11 03:54:32;;;;;;;7.72;6.93;;;15.30;99.90;;;;;;4845816;29;20303;-91
2023/09/11 03:56:58;;;;;;;9.82;8.27;;;15.30;99.90;;;;;;4846482;29;20180;-92
2023/09/11 03:59:27;;;;;;;7.70;6.90;;;15.30;99.90;;;;;;4846141;29;20278;-91
2023/09/11 04:01:53;;;;;;;9.45;7.68;;;15.30;99.90;;;;;;4846634;29;20176;-92
2023/09/11 04:04:19;;;;;;;9.98;7.80;;;15.30;99.90;;;;;;4862897;29;20184;-92
2023/09/11 04:06:45;;;;;;;10.27;8.32;;;15.20;99.90;;;;;;4861286;29;20219;-91
2023/09/11 04:09:13;;;;;;;11.52;10.20;;;15.20;99.90;;;;;;4828018;29;20194;-92
2023/09/11 04:11:39;;;;;;;13.27;9.80;;;15.20;99.90;;;;;;4828355;29;20519;-93
2023/09/11 04:14:04;;;;;;;12.40;9.05;;;15.30;99.90;;;;;;4844331;29;20216;-93
2023/09/11 04:16:30;;;;;;;11.40;8.80;;;15.20;99.90;;;;;;4844361;29;20230;-92
2023/09/11 04:18:56;;;;;;;10.88;8.20;;;15.30;99.90;;;;;;4844406;29;20185;-93
2023/09/11 04:21:21;;;;;;;11.75;8.13;;;15.20;99.90;;;;;;4828348;29;20314;-93
2023/09/11 04:23:47;;;;;;;12.13;9.65;;;15.20;99.90;;;;;;4827991;29;20635;-92
2023/09/11 04:26:13;;;;;;;12.05;9.25;;;15.20;99.90;;;;;;4828150;29;20189;-92
2023/09/11 04:28:39;;;;;;;12.77;9.20;;;15.20;99.90;;;;;;4828071;29;20181;-94
2023/09/11 04:31:14;;;;;;;9.38;7.90;;;15.20;99.90;;;;;;4843180;29;20204;-93
2023/09/11 04:33:40;;;;;;;11.73;9.45;;;15.10;99.90;;;;;;4827887;29;20216;-92
2023/09/11 04:36:06;;;;;;;12.98;9.85;;;15.10;99.90;;;;;;4827967;29;20705;-92
2023/09/11 04:38:32;;;;;;;15.95;11.30;;;15.20;99.90;;;;;;4827634;29;20194;-92
2023/09/11 04:40:58;;;;;;;15.05;11.90;;;15.20;99.90;;;;;;4827819;29;20224;-92
2023/09/11 04:43:25;;;;;;;14.77;11.77;;;15.30;99.90;;;;;;4827892;29;20177;-92
2023/09/11 04:45:50;;;;;;;12.88;11.57;;;15.30;99.90;;;;;;4827741;29;20181;-93
2023/09/11 04:48:16;;;;;;;14.00;11.75;;;15.20;99.90;;;;;;4843745;29;20575;-92
2023/09/11 04:50:49;;;;;;;12.82;11.07;;;15.20;99.90;;;;;;4828142;29;20497;-92
2023/09/11 04:53:15;;;;;;;14.77;11.40;;;15.10;99.90;;;;;;4827031;29;20246;-92
2023/09/11 04:55:40;;;;;;;13.85;11.40;;;15.20;99.90;;;;;;4827802;29;20560;-91
2023/09/11 04:58:06;;;;;;;15.50;12.23;;;15.20;99.90;;;;;;4827816;29;20185;-92
2023/09/11 05:00:33;;;;;;;14.02;11.40;;;15.30;99.90;;;;;;4827570;29;20185;-92
2023/09/11 05:02:59;;;;;;;12.23;10.98;;;15.30;99.90;;;;;;4827739;29;20184;-92
2023/09/11 05:05:25;;;;;;;13.73;11.45;;;15.30;99.90;;;;;;4829831;29;20185;-90
2023/09/11 05:07:51;;;;;;;10.75;9.68;;;15.30;99.90;;;;;;4827353;29;20370;-92
2023/09/11 05:10:20;;;;;;;13.57;10.27;;;15.30;99.90;;;;;;4828062;29;20213;-91
2023/09/11 05:12:46;;;;;;;12.48;9.70;;;15.30;99.90;;;;;;4828022;29;20680;-92
2023/09/11 05:15:15;;;;;;;11.52;9.00;;;15.30;99.90;;;;;;4827669;29;20210;-93
2023/09/11 05:17:41;;;;;;;11.40;9.20;;;15.20;99.90;;;;;;4816075;29;20191;-93
2023/09/11 05:20:15;;;;;;;12.07;10.35;;;15.30;99.90;;;;;;4809960;29;20199;-91
2023/09/11 05:22:41;;;;;;;13.43;10.50;;;15.30;99.90;;;;;;4794612;29;20232;-92
2023/09/11 05:25:07;;;;;;;12.75;10.32;;;15.30;99.90;;;;;;4809624;29;20187;-92
2023/09/11 05:27:33;;;;;;;13.00;11.70;;;15.40;99.90;;;;;;4794192;29;20197;-92
2023/09/11 05:29:59;;;;;;;16.95;10.75;;;15.50;99.90;;;;;;4794289;29;20525;-92
2023/09/11 05:32:25;;;;;;;14.15;10.65;;;15.50;99.90;;;;;;4794186;29;20190;-90
2023/09/11 05:34:52;;;;;;;12.52;10.95;;;15.60;99.90;;;;;;4809666;29;20221;-92
2023/09/11 05:37:17;;;;;;;12.93;11.63;;;15.60;99.90;;;;;;4793870;29;20639;-92
2023/09/11 05:39:44;;;;;;;15.63;11.80;;;15.80;99.90;;;;;;4793868;29;20247;-93
2023/09/11 05:42:13;;;;;;;13.52;11.18;;;15.80;99.90;;;;;;4793948;29;20244;-92
2023/09/11 05:44:39;;;;;;;14.25;12.00;;;15.80;99.90;;;;;;4794168;29;20186;-93
2023/09/11 05:47:07;;;;;;;12.15;10.85;;;15.90;99.90;;;;;;4815420;29;20535;-93
2023/09/11 05:49:33;;;;;;;13.90;11.40;;;16.00;99.90;;;;;;4826655;29;20614;-91
2023/09/11 05:52:01;;;;;;;14.45;11.15;;;16.10;99.90;;;;;;4794247;29;20238;-92
2023/09/11 05:54:27;;;;;;;13.23;11.20;;;16.20;99.90;;;;;;4794190;29;20223;-92
2023/09/11 05:56:53;;;;;;;11.63;9.85;;;16.30;99.90;;;;;;4794187;29;20197;-92
2023/09/11 05:59:20;;;;;;;12.52;10.50;;;16.40;99.90;;;;;;4810184;29;20183;-91
2023/09/11 06:01:47;;;;;;;16.17;11.52;;;16.50;99.90;;;;;;4793659;29;20186;-91
2023/09/11 06:04:13;;;;;;;12.07;10.88;;;16.60;99.90;;;;;;4809860;29;20511;-91
2023/09/11 06:06:39;;;;;;;16.13;11.32;;;16.80;99.90;;;;;;4809969;29;20250;-89
2023/09/11 06:09:08;;;;;;;13.05;11.50;;;16.80;99.90;;;;;;4811809;29;20225;-92
2023/09/11 06:11:37;;;;;;;15.45;10.88;;;16.90;99.90;;;;;;4811290;29;20190;-93
2023/09/11 06:14:05;;;;;;;11.48;9.90;;;17.00;99.90;;;;;;4810943;29;20214;-92
2023/09/11 06:16:31;;;;;;;12.98;10.48;;;17.10;99.90;;;;;;4810161;29;20262;-92
2023/09/11 06:19:00;;;;;;;11.73;10.20;;;17.20;99.90;;;;;;4811265;29;20641;-92
2023/09/11 06:21:26;;;;;;;15.15;10.65;;;17.30;99.90;;;;;;4811347;29;20656;-90
2023/09/11 06:23:53;;;;;;;14.52;10.43;;;17.40;99.90;;;;;;4827671;29;20186;-91
2023/09/11 06:26:18;;;;;;;15.73;10.25;;;17.50;99.90;;;;;;4845802;29;20185;-93
2023/09/11 06:28:44;;;;;;;12.68;11.38;;;17.50;99.90;;;;;;4829397;29;20186;-93
2023/09/11 06:31:12;;;;;;;13.15;10.73;;;17.60;99.90;;;;;;4829476;29;20556;-93
2023/09/11 06:33:38;;;;;;;15.57;11.25;;;17.70;99.90;;;;;;4829324;29;20209;-92
2023/09/11 06:36:04;;;;;;;13.63;11.73;;;17.80;99.90;;;;;;4829444;29;20655;-92
2023/09/11 06:38:30;;;;;;;17.75;11.85;;;17.90;99.90;;;;;;4829441;29;20523;-92
2023/09/11 06:40:56;;;;;;;13.02;10.25;;;18.10;99.90;;;;;;4829597;29;20181;-92
2023/09/11 06:43:22;;;;;;;14.40;12.15;;;18.20;99.90;;;;;;4829606;29;20182;-95
2023/09/11 06:45:52;;;;;;;12.07;10.25;;;18.30;99.90;;;;;;4829175;29;20196;-94
2023/09/11 06:48:18;;;;;;;15.50;11.60;;;18.40;99.90;;;;;;4828442;29;20254;-94
2023/09/11 06:50:44;;;;;;;15.80;12.50;;;18.50;99.90;;;;;;4828820;29;20243;-92
2023/09/11 06:53:10;;;;;;;19.15;11.85;;;18.70;99.90;;;;;;4829065;29;20193;-92
2023/09/11 06:55:42;;;;;;;14.52;10.60;;;18.70;99.90;;;;;;4829061;29;20197;-94
2023/09/11 06:58:08;;;;;;;14.65;11.80;;;18.90;99.90;;;;;;4828699;29;20189;-90
2023/09/11 07:00:34;;;;;;;17.00;11.57;;;19.00;99.90;;;;;;4828592;29;20241;-91
2023/09/11 07:02:59;;;;;;;13.57;11.73;;;19.10;99.90;;;;;;4828767;29;20176;-88
2023/09/11 07:05:26;;;;;;;14.45;12.45;;;19.20;99.90;;;;;;4828778;29;20591;-90
2023/09/11 07:07:52;;;;;;;15.55;12.18;;;19.30;99.90;;;;;;4828704;29;20285;-91
2023/09/11 07:10:18;;;;;;;13.43;11.85;;;19.40;99.90;;;;;;4828656;29;20275;-91
2023/09/11 07:12:47;;;;;;;17.73;12.50;;;19.40;99.90;;;;;;4844887;29;20189;-91
2023/09/11 07:15:13;;;;;;;12.27;10.95;;;19.50;99.90;;;;;;4828545;29;20695;-89
2023/09/11 07:17:39;;;;;;;16.63;10.88;;;19.60;99.90;;;;;;4825381;29;21675;-92
2023/09/11 07:20:06;;;;;;;17.48;11.70;;;19.70;99.90;;;;;;4823352;29;20201;-90
2023/09/11 07:22:32;;;;;;;13.18;11.02;;;19.80;99.90;;;;;;4824920;29;20196;-92
2023/09/11 07:24:58;;;;;;;14.25;10.55;;;19.90;99.90;;;;;;4844794;29;20193;-90
2023/09/11 07:27:33;;;;;;;14.15;11.07;;;20.00;99.90;;;;;;4844208;29;20260;-91
2023/09/11 07:29:59;;;;;;;13.57;10.95;;;20.00;99.90;;;;;;4844703;29;20169;-94
2023/09/11 07:32:26;;;;;;;14.57;10.93;;;20.20;99.90;;;;;;4828103;29;20269;-92
2023/09/11 07:34:52;;;;;;;11.75;10.30;;;20.20;99.90;;;;;;4844571;29;20205;-91
2023/09/11 07:37:17;;;;;;;17.40;11.48;;;20.20;99.90;;;;;;4828418;29;20200;-91
2023/09/11 07:39:43;;;;;;;14.75;10.60;;;20.40;99.90;;;;;;4844551;29;20626;-92
2023/09/11 07:42:09;;;;;;;17.35;11.02;;;20.50;99.90;;;;;;4828298;29;20192;-90
2023/09/11 07:44:34;;;;;;;14.52;10.48;;;20.60;99.90;;;;;;4828642;29;20182;-89
2023/09/11 07:47:00;;;;;;;13.55;10.13;;;20.70;99.90;;;;;;4844366;29;20178;-93
2023/09/11 07:49:26;;;;;;;25.92;11.15;;;20.80;99.90;;;;;;4828631;29;20205;-91
2023/09/11 07:51:52;;;;;;;18.55;10.32;;;20.80;99.90;;;;;;4828546;29;20185;-91
2023/09/11 07:54:17;;;;;;;12.85;10.23;;;20.90;99.90;;;;;;4828681;29;20208;-93
2023/09/11 07:56:43;;;;;;;13.80;11.02;;;21.00;99.90;;;;;;4844357;29;20178;-93
2023/09/11 07:59:09;;;;;;;15.13;10.05;;;21.00;99.90;;;;;;4828427;29;20193;-92
2023/09/11 08:01:42;;;;;;;14.05;10.38;;;21.00;99.90;;;;;;4828147;29;20237;-91
2023/09/11 08:04:08;;;;;;;13.43;9.45;;;21.20;99.90;;;;;;4828105;29;20636;-92
2023/09/11 08:06:33;;;;;;;14.65;10.27;;;21.30;99.90;;;;;;4843803;29;20182;-91
2023/09/11 08:09:03;;;;;;;13.18;10.00;;;21.40;99.90;;;;;;4828155;29;20237;-90
2023/09/11 08:11:30;;;;;;;12.43;9.45;;;21.60;99.90;;;;;;4828018;29;20625;-89
2023/09/11 08:14:02;;;;;;;12.68;9.52;;;21.70;99.90;;;;;;4828084;29;20229;-90
2023/09/11 08:16:29;;;;;;;12.77;8.57;;;21.80;99.90;;;;;;4826690;29;20187;-91
2023/09/11 08:18:55;;;;;;;13.93;8.68;;;22.00;99.90;;;;;;4810003;29;20234;-94
2023/09/11 08:21:21;;;;;;;10.50;8.25;;;22.10;99.90;;;;;;4811503;29;20182;-96
2023/09/11 08:23:47;;;;;;;12.07;8.65;;;22.20;99.90;;;;;;4826402;29;20190;-91
2023/09/11 08:26:12;;;;;;;14.25;8.73;;;22.30;99.90;;;;;;4809851;29;20178;-94
2023/09/11 08:28:38;;;;;;;9.75;8.50;;;22.40;99.90;;;;;;4809893;29;20213;-91
2023/09/11 08:31:04;;;;;;;12.35;8.30;;;22.40;99.90;;;;;;4809683;29;20261;-92
2023/09/11 08:33:31;;;;;;;15.35;8.13;;;22.60;99.90;;;;;;4809859;29;20186;-92
2023/09/11 08:35:57;;;;;;;13.98;8.27;;;22.60;99.90;;;;;;4826076;29;20641;-94
2023/09/11 08:38:24;;;;;;;12.57;8.02;;;22.80;99.90;;;;;;4826089;29;20189;-95
2023/09/11 08:40:50;;;;;;;11.77;7.35;;;22.90;99.90;;;;;;4828919;29;20194;-92
2023/09/11 08:43:15;;;;;;;9.52;8.18;;;22.90;99.90;;;;;;4813308;29;20190;-91
2023/09/11 08:45:43;;;;;;;13.30;7.18;;;23.00;99.90;;;;;;4813641;29;20182;-92
2023/09/11 08:48:15;;;;;;;14.38;7.30;;;23.10;99.90;;;;;;4826832;29;20196;-92
2023/09/11 08:50:50;;;;;;;12.77;7.55;;;23.20;99.90;;;;;;4831200;29;20754;-91
2023/09/11 08:53:21;;;;;;;15.60;7.68;;;23.30;99.90;;;;;;4831172;29;20184;-89
2023/09/11 08:55:47;;;;;;;11.98;7.20;;;23.40;99.90;;;;;;4830947;29;20205;-92
2023/09/11 08:58:15;;;;;;;10.50;7.32;;;23.60;99.90;;;;;;4831394;29;20614;-94
2023/09/11 09:00:42;;;;;;;10.18;7.22;;;23.60;99.90;;;;;;4831197;29;20190;-91
2023/09/11 09:03:15;;;;;;;15.93;6.90;;;23.70;99.90;;;;;;4831337;29;20189;-90
2023/09/11 09:05:46;;;;;;;13.00;7.05;;;23.80;99.90;;;;;;4830863;29;20649;-93
2023/09/11 09:08:12;;;;;;;16.15;6.55;;;23.90;99.90;;;;;;4830511;29;20233;-91
2023/09/11 09:10:40;;;;;;;16.30;7.00;;;24.00;99.90;;;;;;4830888;29;20205;-96
2023/09/11 09:13:18;;;;;;;15.18;6.72;;;24.10;99.90;;;;;;4831271;29;20186;-94
2023/09/11 09:15:45;;;;;;;14.18;6.03;;;24.20;99.90;;;;;;4831788;29;20189;-92
2023/09/11 09:18:11;;;;;;;12.55;5.85;;;24.30;99.90;;;;;;4840422;29;20169;-96
2023/09/11 09:20:38;;;;;;;10.90;6.00;;;24.40;99.90;;;;;;4850161;29;20236;-91
2023/09/11 09:23:06;;;;;;;16.08;5.97;;;24.40;99.90;;;;;;4836070;29;20272;-96
2023/09/11 09:25:32;;;;;;;11.02;5.93;;;24.50;99.90;;;;;;4840437;29;20190;-94
2023/09/11 09:27:58;;;;;;;16.17;4.85;;;24.50;99.90;;;;;;4837979;29;20629;-96
2023/09/11 09:33:13;;;;;;;15.35;5.85;;;24.70;99.90;;;;;;4850476;29;20221;-95
2023/09/11 09:35:39;;;;;;;12.10;5.47;;;24.80;99.90;;;;;;4832798;29;20646;-90
2023/09/11 09:38:07;;;;;;;13.68;5.82;;;24.90;99.90;;;;;;4833096;29;20185;-96
2023/09/11 09:40:42;;;;;;;16.90;5.38;;;25.00;99.90;;;;;;4831026;29;20267;-96
2023/09/11 09:43:27;;;;;;;11.23;5.38;;;25.10;99.90;;;;;;4832416;29;20276;-92
2023/09/11 09:45:54;;;;;;;17.88;5.72;;;25.20;99.90;;;;;;4828458;29;20217;-96
2023/09/11 09:48:47;;;;;;;14.20;5.43;;;25.30;99.90;;;;;;4803529;29;20258;-95
2023/09/11 09:51:13;;;;;;;17.48;6.00;;;25.40;99.90;;;;;;4832638;29;20245;-95
2023/09/11 09:53:42;;;;;;;16.95;5.70;;;25.40;99.90;;;;;;4817949;29;20234;-93
2023/09/11 09:56:11;;;;;;;16.25;6.15;;;25.50;99.90;;;;;;4813669;29;20501;-94
2023/09/11 09:58:42;;;;;;;13.13;5.80;;;25.50;99.90;;;;;;4812283;29;20614;-96
2023/09/11 10:01:10;;;;;;;18.08;5.85;;;25.60;99.90;;;;;;4814663;29;20207;-92
2023/09/11 10:03:54;;;;;;;15.32;6.03;;;25.70;99.90;;;;;;4831226;29;20602;-94
2023/09/11 10:06:20;;;;;;;15.20;5.80;;;25.70;99.90;;;;;;4818088;29;20277;-96
2023/09/11 10:09:02;;;;;;;19.15;5.80;;;25.80;99.90;;;;;;4818141;29;20174;-96
2023/09/11 10:11:30;;;;;;;19.23;6.70;;;25.90;99.90;;;;;;4816705;29;20657;-95
2023/09/11 10:14:04;;;;;;;23.70;6.00;;;26.00;99.90;;;;;;4831849;29;20202;-88
2023/09/11 10:16:30;;;;;;;16.30;5.80;;;26.00;99.90;;;;;;4814616;29;20196;-92
2023/09/11 10:18:58;;;;;;;18.38;6.75;;;26.00;99.90;;;;;;4848553;29;20188;-92
2023/09/11 10:21:25;;;;;;;23.15;6.25;;;26.00;99.90;;;;;;4854529;29;20189;-96
2023/09/11 10:23:53;;;;;;;14.77;6.65;;;26.10;99.90;;;;;;4854591;29;20233;-96
2023/09/11 10:26:41;;;;;;;19.25;6.10;;;26.20;99.90;;;;;;4851536;29;20520;-96
2023/09/11 10:29:11;;;;;;;18.77;6.35;;;26.30;99.90;;;;;;4869722;29;20325;-95
2023/09/11 10:31:53;;;;;;;25.80;6.15;;;26.40;99.90;;;;;;4871994;29;20231;-95
2023/09/11 10:34:25;;;;;;;26.05;6.47;;;26.40;99.90;;;;;;4872768;23;20199;-86
2023/09/11 10:36:56;;;;;;;16.88;6.22;;;26.40;99.90;;;;;;4845953;29;20190;-96
2023/09/11 10:39:22;;;;;;;16.33;6.35;;;26.40;99.90;;;;;;4839897;29;20211;-92
2023/09/11 10:41:48;;;;;;;16.27;6.20;;;26.50;99.90;;;;;;4820553;29;20197;-93
2023/09/11 10:44:16;;;;;;;23.58;6.20;;;26.50;99.90;;;;;;4842584;29;20193;-93
2023/09/11 10:46:52;;;;;;;22.02;5.75;;;26.60;99.90;;;;;;4823864;29;20205;-96
2023/09/11 10:49:28;;;;;;;18.75;5.75;;;26.70;99.90;;;;;;4918660;23;20237;-94
2023/09/11 10:51:56;;;;;;;20.38;5.90;;;26.80;99.90;;;;;;4831172;29;20207;-93
2023/09/11 10:54:26;;;;;;;16.50;5.72;;;26.80;99.90;;;;;;4830760;29;20206;-93
2023/09/11 10:56:58;;;;;;;20.55;6.13;;;26.90;99.90;;;;;;4831695;29;20889;-94
2023/09/11 10:59:31;;;;;;;23.58;6.18;;;26.90;99.90;;;;;;4831756;29;20190;-93
2023/09/11 11:02:02;;;;;;;26.10;6.68;;;27.00;99.90;;;;;;4831294;29;20247;-93
2023/09/11 11:04:32;;;;;;;15.70;5.40;;;27.10;99.90;;;;;;4831255;29;20174;-93
2023/09/11 11:07:02;;;;;;;23.88;6.15;;;27.20;99.90;;;;;;4831462;29;20206;-93
2023/09/11 11:09:35;;;;;;;21.92;7.00;;;27.20;99.90;;;;;;4830967;29;20182;-92
2023/09/11 11:12:13;;;;;;;17.55;5.90;;;27.20;99.90;;;;;;4831536;29;20568;-95
2023/09/11 11:14:41;;;;;;;22.77;5.80;;;27.30;99.90;;;;;;4830980;29;20250;-93
2023/09/11 11:17:10;;;;;;;20.00;5.65;;;27.30;99.90;;;;;;4830927;29;20284;-94
2023/09/11 11:19:50;;;;;;;26.27;6.32;;;27.40;99.90;;;;;;4830783;29;20182;-94
2023/09/11 11:22:41;;;;;;;28.40;5.57;;;27.60;99.90;;;;;;4831204;29;20181;-94
2023/09/11 11:25:10;;;;;;;17.48;5.45;;;27.70;99.90;;;;;;4830879;29;20182;-94
2023/09/11 11:27:42;;;;;;;22.13;6.03;;;27.80;99.90;;;;;;4831136;29;20205;-95
2023/09/11 11:30:09;;;;;;;17.17;5.38;;;27.80;99.90;;;;;;4830966;29;20182;-93
2023/09/11 11:32:42;;;;;;;23.05;5.63;;;27.90;99.90;;;;;;4831597;29;20177;-92
2023/09/11 11:35:13;;;;;;;15.32;5.15;;;28.00;99.90;;;;;;4829773;29;20265;-94
2023/09/11 11:37:49;;;;;;;21.40;5.45;;;28.00;99.90;;;;;;4830787;29;20662;-92
2023/09/11 11:40:19;;;;;;;17.30;5.22;;;28.10;99.90;;;;;;4830763;29;20684;-93
2023/09/11 11:42:47;;;;;;;17.58;5.03;;;28.20;99.90;;;;;;4830763;29;20627;-93
2023/09/11 11:45:21;;;;;;;16.23;4.72;;;28.30;99.90;;;;;;4830573;29;20188;-92
2023/09/11 11:47:49;;;;;;;21.38;5.20;;;28.40;99.90;;;;;;4830224;29;20322;-94
2023/09/11 11:50:15;;;;;;;13.55;4.38;;;28.50;99.90;;;;;;4830385;29;20233;-93
2023/09/11 11:52:48;;;;;;;18.73;5.15;;;28.50;99.90;;;;;;4830087;29;20192;-93
2023/09/11 11:55:29;;;;;;;19.52;5.28;;;28.50;99.90;;;;;;4830320;29;20217;-93
2023/09/11 11:57:59;;;;;;;17.90;4.63;;;28.70;99.90;;;;;;4830017;29;20197;-92
2023/09/11 12:00:27;;;;;;;20.23;5.43;;;28.70;99.90;;;;;;4830244;29;20186;-94
2023/09/11 12:03:05;;;;;;;12.70;4.20;;;28.70;99.90;;;;;;4829966;29;20181;-94
2023/09/11 12:05:35;;;;;;;14.88;4.40;;;28.80;99.90;;;;;;4830746;29;20185;-95
2023/09/11 12:08:03;;;;;;;15.68;4.68;;;28.90;99.90;;;;;;4829920;29;20201;-95
2023/09/11 12:10:31;;;;;;;22.35;5.22;;;28.90;99.90;;;;;;4814491;29;20189;-93
2023/09/11 12:12:59;;;;;;;18.73;4.75;;;29.00;99.90;;;;;;4830398;29;20186;-93
2023/09/11 12:15:38;;;;;;;18.23;5.00;;;29.00;99.90;;;;;;4829681;29;20220;-93
2023/09/11 12:18:06;;;;;;;12.60;4.60;;;29.10;99.90;;;;;;4830345;29;20225;-94
2023/09/11 12:20:32;;;;;;;13.73;4.82;;;29.10;99.90;;;;;;4830278;29;20177;-95
2023/09/11 12:23:01;;;;;;;16.83;5.07;;;29.20;99.90;;;;;;4829010;29;20215;-96
2023/09/11 12:25:28;;;;;;;17.40;4.28;;;29.20;98.40;;;;;;4825440;29;20210;-94
2023/09/11 12:27:55;;;;;;;16.77;4.90;;;29.20;98.90;;;;;;4825435;29;20209;-95
2023/09/11 12:30:23;;;;;;;14.70;4.65;;;29.30;99.90;;;;;;4826464;29;20188;-94
2023/09/11 12:32:49;;;;;;;13.75;4.50;;;29.40;99.60;;;;;;4826840;29;20189;-93
2023/09/11 12:35:32;;;;;;;12.25;4.32;;;29.40;99.80;;;;;;4826884;29;20220;-93
2023/09/11 12:38:17;;;;;;;13.88;4.15;;;29.50;99.60;;;;;;4826417;29;20205;-95
2023/09/11 12:40:43;;;;;;;19.85;4.20;;;29.50;97.40;;;;;;4826463;29;20201;-94
2023/09/11 12:43:10;;;;;;;15.60;3.53;;;29.50;96.50;;;;;;4824786;29;20173;-94
2023/09/11 12:45:40;;;;;;;16.73;3.80;;;29.40;97.30;;;;;;4824928;29;20185;-93
2023/09/11 12:48:07;;;;;;;13.75;4.15;;;29.40;97.40;;;;;;4825373;29;20208;-95